PHL weather

Philadelphia International Airport
Philadelphia, Pennsylvania, United States

Public forecast

Using degrees Fahrenheit for public forecast. Weather courtesy of forecast.io.

Current aviation weather report (METAR) for Philadelphia International Airport

Retrieved 2019/10/17 03:54 UTC (7 minutes ago):

KPHL 170354Z 29018G24KT 10SM BKN041 BKN080 12/03 A2944 RMK AO2 PK WND 29031/0312 SLP967 T01170033

Aviation forecast (TAF) for Philadelphia International Airport

Retrieved 2019-10-17 00:30 UTC (4 hours ago):

TAF KPHL 162323Z 1700/1806 31014G27KT P6SM -SHRA OVC035 FM170200 29019G30KT P6SM BKN250 FM170900 27017G34KT P6SM SCT050 FM180000 28015G27KT P6SM BKN070